createdAt,value
2022-11-24T00:01:23.667Z,5.15
2022-11-24T00:03:56.541Z,5.21
2022-11-24T00:06:24.984Z,5.15
2022-11-24T00:08:55.509Z,5.28
2022-11-24T00:11:25.702Z,5.35
2022-11-24T00:13:54.411Z,5.24
2022-11-24T00:16:24.622Z,5.25
2022-11-24T00:18:56.488Z,5.19
2022-11-24T00:21:25.932Z,5.19
2022-11-24T00:23:54.271Z,5.15
2022-11-24T00:26:24.445Z,5.15
2022-11-24T00:28:55.429Z,5.11
2022-11-24T00:31:25.833Z,5.14
2022-11-24T00:33:57.096Z,5.21
2022-11-24T00:36:28.654Z,5.24
2022-11-24T00:38:57.830Z,5.24
2022-11-24T00:41:26.767Z,5.25
2022-11-24T00:43:55.848Z,5.31
2022-11-24T00:46:24.607Z,5.21
2022-11-24T00:48:53.810Z,5.24
2022-11-24T00:51:24.985Z,5.31
2022-11-24T00:53:55.592Z,5.24
2022-11-24T00:56:23.914Z,5.22
2022-11-24T00:58:52.311Z,5.18
2022-11-24T01:01:23.408Z,5.12
2022-11-24T01:03:51.919Z,5.19
2022-11-24T01:06:22.168Z,5.17
2022-11-24T01:08:51.992Z,5.11
2022-11-24T01:11:21.588Z,5.18
2022-11-24T01:13:53.052Z,5.10
2022-11-24T01:16:23.430Z,5.11
2022-11-24T01:18:58.256Z,5.07
2022-11-24T01:21:26.671Z,5.10
2022-11-24T01:23:56.243Z,5.08
2022-11-24T01:26:24.322Z,5.04
2022-11-24T01:28:54.639Z,5.04
2022-11-24T01:31:23.379Z,4.98
2022-11-24T01:33:51.547Z,5.02
2022-11-24T01:36:20.208Z,4.94
2022-11-24T01:38:48.337Z,4.97
2022-11-24T01:41:20.538Z,4.90
2022-11-24T01:43:49.462Z,4.85
2022-11-24T01:46:23.557Z,4.85
2022-11-24T01:48:57.296Z,4.90
2022-11-24T01:51:28.002Z,4.91
2022-11-24T01:54:00.622Z,4.92
2022-11-24T01:56:31.469Z,5.02
2022-11-24T01:59:07.772Z,4.98
2022-11-24T02:01:35.963Z,4.91
2022-11-24T02:04:07.318Z,4.90
2022-11-24T02:06:37.999Z,4.90
2022-11-24T02:09:12.708Z,4.90
2022-11-24T02:11:44.738Z,4.84
2022-11-24T02:14:14.918Z,4.85
2022-11-24T02:16:45.808Z,4.87
2022-11-24T02:19:22.124Z,4.83
2022-11-24T02:21:50.224Z,4.83
2022-11-24T02:24:25.278Z,4.80
2022-11-24T02:26:54.754Z,4.80
2022-11-24T02:29:25.226Z,4.81
2022-11-24T02:31:59.568Z,4.79
2022-11-24T02:34:28.550Z,4.79
2022-11-24T02:36:56.539Z,4.76
2022-11-24T02:39:25.154Z,4.74
2022-11-24T02:41:58.506Z,4.76
2022-11-24T02:44:32.185Z,4.77
2022-11-24T02:47:05.360Z,4.77
2022-11-24T02:49:33.418Z,4.71
2022-11-24T02:52:01.829Z,4.81
2022-11-24T02:54:30.240Z,4.79
2022-11-24T02:56:59.846Z,4.83
2022-11-24T02:59:27.903Z,4.84
2022-11-24T03:01:58.060Z,4.80
2022-11-24T03:04:26.329Z,4.70
2022-11-24T03:06:54.348Z,4.71
2022-11-24T03:09:22.406Z,4.66
2022-11-24T03:11:50.810Z,4.69
2022-11-24T03:14:20.184Z,4.77
2022-11-24T03:16:48.486Z,4.74
2022-11-24T03:19:16.447Z,4.66
2022-11-24T03:21:48.449Z,4.67
2022-11-24T03:24:18.872Z,4.67
2022-11-24T03:26:46.999Z,4.71
2022-11-24T03:29:14.982Z,4.66
2022-11-24T03:31:44.392Z,4.69
2022-11-24T03:34:12.644Z,4.57
2022-11-24T03:36:41.570Z,4.49
2022-11-24T03:39:09.924Z,4.48
2022-11-24T03:41:37.880Z,4.49
2022-11-24T03:44:06.197Z,4.46
2022-11-24T03:46:34.575Z,4.45
2022-11-24T03:49:04.277Z,4.48
2022-11-24T03:51:32.582Z,4.38
2022-11-24T03:54:00.611Z,4.43
2022-11-24T03:56:29.324Z,4.35
2022-11-24T03:58:57.377Z,4.36
2022-11-24T04:01:25.352Z,4.39
2022-11-24T04:03:53.399Z,4.42
2022-11-24T04:06:22.736Z,4.45
2022-11-24T04:08:50.819Z,4.45
2022-11-24T04:11:32.881Z,4.45
2022-11-24T04:14:01.096Z,4.43
2022-11-24T04:16:29.577Z,4.46
2022-11-24T04:18:57.617Z,4.46
2022-11-24T04:21:27.413Z,4.48
2022-11-24T04:23:55.331Z,4.49
2022-11-24T04:26:23.357Z,4.46
2022-11-24T04:28:51.396Z,4.49
2022-11-24T04:31:19.874Z,4.50
2022-11-24T04:33:47.975Z,4.52
2022-11-24T04:36:18.100Z,4.56
2022-11-24T04:39:23.679Z,4.48
2022-11-24T04:41:35.925Z,4.56
2022-11-24T04:44:03.982Z,4.63
2022-11-24T04:46:32.136Z,4.69
2022-11-24T04:49:00.143Z,4.74
2022-11-24T04:51:28.193Z,4.63
2022-11-24T04:53:57.589Z,4.66
2022-11-24T04:56:25.561Z,4.73
2022-11-24T04:58:53.607Z,4.79
2022-11-24T05:04:38.053Z,4.76
2022-11-24T05:07:06.899Z,4.76
2022-11-24T05:09:59.556Z,4.80
2022-11-24T05:12:31.240Z,4.74
2022-11-24T05:15:00.262Z,4.83
2022-11-24T05:17:30.705Z,4.81
2022-11-24T05:19:59.270Z,4.88
2022-11-24T05:22:29.329Z,4.92
2022-11-24T05:24:59.175Z,4.94
2022-11-24T05:27:27.450Z,4.92
2022-11-24T05:29:55.485Z,4.95
2022-11-24T05:32:23.607Z,4.91
2022-11-24T05:34:53.128Z,4.95
2022-11-24T05:37:21.257Z,4.98
2022-11-24T05:39:49.294Z,4.98
2022-11-24T05:42:36.327Z,5.02
2022-11-24T05:45:04.864Z,5.05
2022-11-24T05:47:33.096Z,4.97
2022-11-24T05:50:01.234Z,4.87
2022-11-24T05:52:29.248Z,4.88
2022-11-24T05:55:03.819Z,4.90
2022-11-24T05:57:33.632Z,4.92
2022-11-24T06:00:01.974Z,4.91
2022-11-24T06:02:40.467Z,4.94
2022-11-24T06:05:09.414Z,4.98
2022-11-24T06:07:38.702Z,4.94
2022-11-24T06:10:07.069Z,4.91
2022-11-24T06:12:37.079Z,4.92
2022-11-24T06:15:05.906Z,4.97
2022-11-24T06:17:38.265Z,4.95
2022-11-24T06:20:08.071Z,4.92
2022-11-24T06:22:36.098Z,4.97
2022-11-24T06:25:04.300Z,4.92
2022-11-24T06:27:32.462Z,4.94
2022-11-24T06:30:01.888Z,5.04
2022-11-24T06:32:29.918Z,5.05
2022-11-24T06:34:58.076Z,5.12
2022-11-24T06:37:26.190Z,5.14
2022-11-24T06:39:54.275Z,5.14
2022-11-24T06:42:22.300Z,5.18
2022-11-24T06:44:51.236Z,5.27
2022-11-24T06:47:20.718Z,5.27
2022-11-24T06:49:48.841Z,5.27
2022-11-24T06:52:17.073Z,5.28
2022-11-24T06:54:45.318Z,5.35
2022-11-24T06:57:13.668Z,5.38
2022-11-24T06:59:41.689Z,5.42
2022-11-24T07:02:10.712Z,5.45
2022-11-24T07:04:40.211Z,5.45
2022-11-24T07:07:08.840Z,5.46
2022-11-24T07:09:36.897Z,5.50
2022-11-24T07:12:06.092Z,5.56
2022-11-24T07:14:34.744Z,5.53
2022-11-24T07:17:04.808Z,5.56
2022-11-24T07:19:33.163Z,5.53
2022-11-24T07:22:02.788Z,5.55
2022-11-24T07:24:31.164Z,5.56
2022-11-24T07:27:00.229Z,5.57
2022-11-24T07:29:28.553Z,5.50
2022-11-24T07:32:00.772Z,5.53
2022-11-24T07:34:32.029Z,5.45
2022-11-24T07:37:00.321Z,5.49
2022-11-24T07:39:29.670Z,5.48
2022-11-24T07:41:59.318Z,5.42
2022-11-24T07:44:29.457Z,5.38
2022-11-24T07:46:57.542Z,5.35
2022-11-24T07:49:27.737Z,5.35
2022-11-24T07:51:57.785Z,5.38
2022-11-24T07:54:25.841Z,5.38
2022-11-24T07:56:55.510Z,5.40
2022-11-24T07:59:23.625Z,5.42
2022-11-24T08:01:51.954Z,5.45
2022-11-24T08:04:20.155Z,5.49
2022-11-24T08:06:48.227Z,5.48
2022-11-24T08:09:16.255Z,5.46
2022-11-24T08:11:44.608Z,5.55
2022-11-24T08:14:14.006Z,5.59
2022-11-24T08:16:42.236Z,5.66
2022-11-24T08:19:12.021Z,5.60
2022-11-24T08:21:40.375Z,5.62
2022-11-24T08:24:09.697Z,5.65
2022-11-24T08:26:38.213Z,5.62
2022-11-24T08:29:06.252Z,5.65
2022-11-24T08:31:36.296Z,5.69
2022-11-24T08:34:05.762Z,5.65
2022-11-24T08:36:34.478Z,5.65
2022-11-24T08:39:02.839Z,5.66
2022-11-24T08:41:32.039Z,5.63
2022-11-24T08:44:00.059Z,5.63
2022-11-24T08:46:28.137Z,5.65
2022-11-24T08:48:58.055Z,5.66
2022-11-24T08:51:27.939Z,5.59
2022-11-24T08:53:58.580Z,5.65
2022-11-24T08:56:26.960Z,5.65
2022-11-24T08:58:55.453Z,5.66
2022-11-24T09:01:23.903Z,5.69
2022-11-24T09:03:53.075Z,5.69
2022-11-24T09:06:25.054Z,5.67
2022-11-24T09:08:54.559Z,5.70
2022-11-24T09:11:23.069Z,5.73
2022-11-24T09:13:51.584Z,5.78
2022-11-24T09:16:22.962Z,5.90
2022-11-24T09:18:56.347Z,6.01
2022-11-24T09:21:25.771Z,6.20
2022-11-24T09:23:55.575Z,6.29
2022-11-24T09:26:26.346Z,6.25
2022-11-24T09:28:57.818Z,6.24
2022-11-24T09:31:27.256Z,6.25
2022-11-24T09:33:55.943Z,6.18
2022-11-24T09:36:25.998Z,6.18
2022-11-24T09:38:54.163Z,6.21
2022-11-24T09:41:40.484Z,6.22
2022-11-24T09:44:23.178Z,6.21
2022-11-24T09:47:01.015Z,6.17
2022-11-24T09:49:34.653Z,6.17
2022-11-24T09:52:12.014Z,6.24
2022-11-24T09:54:50.646Z,6.32
2022-11-24T09:57:22.149Z,6.31
2022-11-24T09:59:50.227Z,6.34
2022-11-24T10:02:18.253Z,6.39
2022-11-24T10:04:48.330Z,6.39
2022-11-24T10:07:25.980Z,6.39
2022-11-24T10:10:01.444Z,6.41
2022-11-24T10:12:42.345Z,6.38
2022-11-24T10:15:25.738Z,6.39
2022-11-24T10:18:31.072Z,6.38
2022-11-24T10:21:11.438Z,6.42
2022-11-24T10:24:07.538Z,6.38
2022-11-24T10:26:38.022Z,6.43
2022-11-24T10:29:21.264Z,6.65
2022-11-24T10:31:53.473Z,7.04
2022-11-24T10:34:28.489Z,7.22
2022-11-24T10:37:03.247Z,7.28
2022-11-24T10:39:37.325Z,7.19
2022-11-24T10:42:13.802Z,7.19
2022-11-24T10:44:43.709Z,7.17
2022-11-24T10:47:19.946Z,7.29
2022-11-24T10:49:56.558Z,7.34
2022-11-24T10:52:27.362Z,7.41
2022-11-24T10:55:02.617Z,7.52
2022-11-24T10:57:37.308Z,7.87
2022-11-24T11:00:37.234Z,8.32
2022-11-24T11:03:22.246Z,8.55
2022-11-24T11:05:54.086Z,8.49
2022-11-24T11:08:29.045Z,8.46
2022-11-24T11:11:23.913Z,8.62
2022-11-24T11:14:01.469Z,8.51
2022-11-24T11:16:38.260Z,8.32
2022-11-24T11:19:47.963Z,8.27
2022-11-24T11:22:23.194Z,8.24
2022-11-24T11:25:05.020Z,8.08
2022-11-24T11:27:34.800Z,7.91
2022-11-24T11:36:12.260Z,7.55
2022-11-24T11:38:41.636Z,7.59
2022-11-24T11:41:15.459Z,7.55
2022-11-24T11:43:46.589Z,7.61
2022-11-24T11:46:17.211Z,7.59
2022-11-24T11:48:47.473Z,7.54
2022-11-24T11:51:35.892Z,7.48
2022-11-24T11:54:10.816Z,7.52
2022-11-24T11:56:44.465Z,7.52
2022-11-24T11:59:34.015Z,7.54
2022-11-24T12:02:20.382Z,7.49
2022-11-24T12:04:51.207Z,7.56
2022-11-24T12:07:45.500Z,7.65
2022-11-24T12:10:24.774Z,7.73
2022-11-24T12:13:26.606Z,7.63
2022-11-24T12:15:58.877Z,7.62
2022-11-24T12:21:34.799Z,7.91
2022-11-24T12:24:11.727Z,8.00
2022-11-24T12:26:46.724Z,7.94
2022-11-24T12:29:55.299Z,7.89
2022-11-24T12:32:45.295Z,7.89
2022-11-24T12:35:23.793Z,7.83
2022-11-24T12:38:02.193Z,7.75
2022-11-24T12:40:46.948Z,7.72
2022-11-24T12:43:24.162Z,7.90
2022-11-24T12:46:00.267Z,8.10
2022-11-24T12:48:44.553Z,7.93
2022-11-24T12:51:18.482Z,7.83
2022-11-24T12:53:53.667Z,7.80
2022-11-24T12:56:27.954Z,7.77
2022-11-24T12:59:04.950Z,7.76
2022-11-24T13:01:38.024Z,7.70
2022-11-24T13:04:16.047Z,7.70
2022-11-24T13:06:52.585Z,7.67
2022-11-24T13:09:21.520Z,7.70
2022-11-24T13:11:51.255Z,7.72
2022-11-24T13:14:22.101Z,7.65
2022-11-24T13:17:29.721Z,7.65
2022-11-24T13:19:48.935Z,7.61
2022-11-24T13:22:24.165Z,7.61
2022-11-24T13:25:14.821Z,7.70
2022-11-24T13:27:48.629Z,7.66
2022-11-24T13:30:50.434Z,7.63
2022-11-24T13:33:35.500Z,7.59
2022-11-24T13:36:33.354Z,7.51
2022-11-24T13:39:03.773Z,7.55
2022-11-24T13:42:43.861Z,7.59
2022-11-24T13:45:01.831Z,7.65
2022-11-24T13:47:35.763Z,7.65
2022-11-24T13:50:07.694Z,7.70
2022-11-24T13:52:50.204Z,7.83
2022-11-24T13:55:29.371Z,7.80
2022-11-24T13:58:01.977Z,7.80
2022-11-24T14:00:32.160Z,7.83
2022-11-24T14:03:03.804Z,7.91
2022-11-24T14:05:39.012Z,7.87
2022-11-24T14:08:19.364Z,7.79
2022-11-24T14:10:47.972Z,7.82
2022-11-24T14:13:34.698Z,7.84
2022-11-24T14:16:05.368Z,7.76
2022-11-24T14:18:34.104Z,7.76
2022-11-24T14:21:17.140Z,7.73
2022-11-24T14:23:48.272Z,7.76
2022-11-24T14:26:21.721Z,7.75
2022-11-24T14:28:50.743Z,7.62
2022-11-24T14:31:24.670Z,7.55
2022-11-24T14:34:19.339Z,7.42
2022-11-24T14:36:47.732Z,7.42
2022-11-24T14:39:18.657Z,7.34
2022-11-24T14:41:53.553Z,7.24
2022-11-24T14:44:27.322Z,7.18
2022-11-24T14:47:03.774Z,7.10
2022-11-24T14:49:33.585Z,7.07
2022-11-24T14:52:04.425Z,7.01
2022-11-24T14:54:34.282Z,7.00
2022-11-24T14:57:05.484Z,6.91
2022-11-24T14:59:36.192Z,6.96
2022-11-24T15:02:05.295Z,6.96
2022-11-24T15:07:26.869Z,6.77
2022-11-24T15:09:58.924Z,6.68
2022-11-24T15:12:30.898Z,6.76
2022-11-24T15:15:02.805Z,6.83
2022-11-24T15:17:31.886Z,6.62
2022-11-24T15:20:03.259Z,6.49
2022-11-24T15:22:40.900Z,6.48
2022-11-24T15:25:31.641Z,6.35
2022-11-24T15:27:59.741Z,6.26
2022-11-24T15:30:30.624Z,6.41
2022-11-24T15:33:00.248Z,6.36
2022-11-24T15:35:31.677Z,6.41
2022-11-24T15:38:00.061Z,6.38
2022-11-24T15:40:32.598Z,6.26
2022-11-24T15:43:05.036Z,6.29
2022-11-24T15:45:35.509Z,6.32
2022-11-24T15:48:03.645Z,6.25
2022-11-24T15:50:31.855Z,6.28
2022-11-24T15:53:00.105Z,6.24
2022-11-24T15:55:28.259Z,6.13
2022-11-24T15:57:57.943Z,6.13
2022-11-24T16:00:26.358Z,6.08
2022-11-24T16:02:55.806Z,6.00
2022-11-24T16:05:23.793Z,5.93
2022-11-24T16:07:54.922Z,5.78
2022-11-24T16:10:27.452Z,5.67
2022-11-24T16:12:56.996Z,5.60
2022-11-24T16:15:25.295Z,5.55
2022-11-24T16:17:53.661Z,5.59
2022-11-24T16:20:21.898Z,5.53
2022-11-24T16:22:49.981Z,5.48
2022-11-24T16:25:19.014Z,5.49
2022-11-24T16:27:47.341Z,5.52
2022-11-24T16:30:17.195Z,5.39
2022-11-24T16:32:46.309Z,5.39
2022-11-24T16:35:14.770Z,5.39
2022-11-24T16:37:43.344Z,5.50
2022-11-24T16:40:12.282Z,5.43
2022-11-24T16:42:42.402Z,5.43
2022-11-24T16:45:13.019Z,5.36
2022-11-24T16:47:44.124Z,5.39
2022-11-24T16:50:13.389Z,5.31
2022-11-24T16:52:41.631Z,5.40
2022-11-24T16:55:11.803Z,5.19
2022-11-24T16:57:41.938Z,5.25
2022-11-24T17:00:11.376Z,5.21
2022-11-24T17:02:39.724Z,5.25
2022-11-24T17:05:10.341Z,5.24
2022-11-24T17:07:38.453Z,5.10
2022-11-24T17:10:08.513Z,5.10
2022-11-24T17:12:38.019Z,4.94
2022-11-24T17:15:31.755Z,4.91
2022-11-24T17:18:23.078Z,4.91
2022-11-24T17:20:47.094Z,4.87
2022-11-24T17:23:16.046Z,4.73
2022-11-24T17:25:44.607Z,4.79
2022-11-24T17:28:13.330Z,4.85
2022-11-24T17:30:41.783Z,4.77
2022-11-24T17:33:10.453Z,4.80
2022-11-24T17:35:38.805Z,4.81
2022-11-24T17:38:08.939Z,4.73
2022-11-24T17:40:40.922Z,4.77
2022-11-24T17:43:13.735Z,4.70
2022-11-24T17:46:05.402Z,4.63
2022-11-24T17:48:34.565Z,4.62
2022-11-24T17:51:04.348Z,4.67
2022-11-24T17:53:33.833Z,4.67
2022-11-24T17:56:02.969Z,4.70
2022-11-24T17:58:32.636Z,4.80
2022-11-24T18:01:01.311Z,4.83
2022-11-24T18:03:31.733Z,4.76
2022-11-24T18:06:04.958Z,4.69
2022-11-24T18:08:35.559Z,4.54
2022-11-24T18:11:08.055Z,4.35
2022-11-24T18:16:28.149Z,4.22
2022-11-24T18:19:07.671Z,4.26
2022-11-24T18:21:37.356Z,4.24
2022-11-24T18:24:07.702Z,4.09
2022-11-24T18:26:35.778Z,4.08
2022-11-24T18:29:04.256Z,3.98
2022-11-24T18:31:36.482Z,3.95
2022-11-24T18:34:05.984Z,3.84
2022-11-24T18:36:35.855Z,3.90
2022-11-24T18:39:08.980Z,4.02
2022-11-24T18:41:37.381Z,4.05
2022-11-24T18:44:08.752Z,4.24
2022-11-24T18:46:37.668Z,4.25
2022-11-24T18:49:08.998Z,4.29
2022-11-24T18:51:37.521Z,4.28
2022-11-24T18:54:08.364Z,4.25
2022-11-24T18:56:37.601Z,4.14
2022-11-24T18:59:06.909Z,4.12
2022-11-24T19:01:37.873Z,4.08
2022-11-24T19:04:06.455Z,4.16
2022-11-24T19:06:36.550Z,4.01
2022-11-24T19:09:08.185Z,3.95
2022-11-24T19:11:41.859Z,3.77
2022-11-24T19:14:16.096Z,3.62
2022-11-24T19:16:45.373Z,3.60
2022-11-24T19:19:17.388Z,3.57
2022-11-24T19:21:46.262Z,3.56
2022-11-24T19:24:17.780Z,3.63
2022-11-24T19:26:46.631Z,3.93
2022-11-24T19:29:14.875Z,4.02
2022-11-24T19:31:44.283Z,3.94
2022-11-24T19:34:12.769Z,4.02
2022-11-24T19:36:43.424Z,4.14
2022-11-24T19:39:17.950Z,4.08
2022-11-24T19:41:46.658Z,4.22
2022-11-24T19:44:16.094Z,4.28
2022-11-24T19:46:45.087Z,4.29
2022-11-24T19:49:13.422Z,4.16
2022-11-24T19:51:42.071Z,4.14
2022-11-24T19:54:16.725Z,3.94
2022-11-24T19:56:46.298Z,3.90
2022-11-24T19:59:15.432Z,3.84
2022-11-24T20:01:43.785Z,3.93
2022-11-24T20:04:14.947Z,3.73
2022-11-24T20:06:44.716Z,3.76
2022-11-24T20:09:15.258Z,3.76
2022-11-24T20:11:45.572Z,3.81
2022-11-24T20:14:16.224Z,3.87
2022-11-24T20:16:58.828Z,3.78
2022-11-24T20:19:26.952Z,3.80
2022-11-24T20:22:02.229Z,3.74
2022-11-24T20:25:00.592Z,3.71
2022-11-24T20:27:51.965Z,3.74
2022-11-24T20:30:22.388Z,3.69
2022-11-24T20:33:20.397Z,3.74
2022-11-24T20:35:54.620Z,3.77
2022-11-24T20:38:27.920Z,3.74
2022-11-24T20:41:09.740Z,3.69
2022-11-24T20:43:44.124Z,3.73
2022-11-24T20:46:15.395Z,3.71
2022-11-24T20:49:13.044Z,3.67
2022-11-24T20:51:43.952Z,3.74
2022-11-24T20:54:15.702Z,3.81
2022-11-24T20:56:54.939Z,3.90
2022-11-24T20:59:26.199Z,4.02
2022-11-24T21:01:57.220Z,4.14
2022-11-24T21:04:27.460Z,4.15
2022-11-24T21:06:56.066Z,4.24
2022-11-24T21:09:24.833Z,4.25
2022-11-24T21:11:53.195Z,4.16
2022-11-24T21:14:21.857Z,4.16
2022-11-24T21:16:51.506Z,4.16
2022-11-24T21:19:20.123Z,4.08
2022-11-24T21:21:49.325Z,3.95
2022-11-24T21:24:21.802Z,3.76
2022-11-24T21:26:53.047Z,3.15
2022-11-24T21:29:25.681Z,3.08
2022-11-24T21:31:59.524Z,2.95
2022-11-24T21:34:35.986Z,2.83
2022-11-24T21:37:07.378Z,2.74
2022-11-24T21:39:38.060Z,2.77
2022-11-24T21:42:08.669Z,2.73
2022-11-24T21:44:37.425Z,2.67
2022-11-24T21:47:11.202Z,2.65
2022-11-24T21:49:39.468Z,2.53
2022-11-24T21:52:07.660Z,2.40
2022-11-24T21:54:36.225Z,2.37
2022-11-24T21:57:05.295Z,2.28
2022-11-24T21:59:33.420Z,2.19
2022-11-24T22:02:02.830Z,2.12
2022-11-24T22:04:32.491Z,2.19
2022-11-24T22:07:00.737Z,2.23
2022-11-24T22:09:29.152Z,2.42
2022-11-24T22:12:01.598Z,2.50
2022-11-24T22:14:29.696Z,2.67
2022-11-24T22:16:58.090Z,2.37
2022-11-24T22:19:26.176Z,2.29
2022-11-24T22:21:55.852Z,2.11
2022-11-24T22:24:27.366Z,2.05
2022-11-24T22:26:56.229Z,2.14
2022-11-24T22:29:25.341Z,2.18
2022-11-24T22:31:53.725Z,2.23
2022-11-24T22:34:21.798Z,2.22
2022-11-24T22:36:49.821Z,2.26
2022-11-24T22:39:19.586Z,2.33
2022-11-24T22:41:48.720Z,2.54
2022-11-24T22:44:16.924Z,2.46
2022-11-24T22:46:44.998Z,2.39
2022-11-24T22:49:14.668Z,2.39
2022-11-24T22:51:44.783Z,2.52
2022-11-24T22:54:15.204Z,2.79
2022-11-24T22:56:44.930Z,3.00
2022-11-24T22:59:13.037Z,2.94
2022-11-24T23:01:41.509Z,2.68
2022-11-24T23:04:12.623Z,2.67
2022-11-24T23:06:40.960Z,2.63
2022-11-24T23:09:12.329Z,2.53
2022-11-24T23:11:41.781Z,2.47
2022-11-24T23:14:15.959Z,2.44
2022-11-24T23:16:44.620Z,2.37
2022-11-24T23:19:13.029Z,2.47
2022-11-24T23:21:41.309Z,2.46
2022-11-24T23:24:10.999Z,2.47
2022-11-24T23:26:42.400Z,2.32
2022-11-24T23:29:16.249Z,2.35
2022-11-24T23:31:44.294Z,2.43
2022-11-24T23:34:12.791Z,2.35
2022-11-24T23:36:41.868Z,2.36
2022-11-24T23:39:13.488Z,2.50
2022-11-24T23:41:41.856Z,2.54
2022-11-24T23:44:10.530Z,2.57
2022-11-24T23:46:40.178Z,2.56
2022-11-24T23:49:10.582Z,2.49
2022-11-24T23:51:42.029Z,2.39
2022-11-24T23:54:10.969Z,2.33
2022-11-24T23:56:43.049Z,2.28
2022-11-24T23:59:12.462Z,2.26
